TimeMST,TemperatureF,Dew PointF,Humidity,Sea Level PressureIn,VisibilityMPH,Wind Direction,Wind SpeedMPH,Gust SpeedMPH,PrecipitationIn,Events,Conditions,WindDirDegrees,DateUTC
12:53 AM,23.0,18.0,81,30.29,5.0,NNE,4.6,-,N/A,,Haze,30,2013-01-08 07:53:00
1:53 AM,23.0,17.1,78,30.30,5.0,Calm,Calm,-,N/A,,Haze,0,2013-01-08 08:53:00
2:53 AM,24.1,17.1,75,30.32,5.0,WNW,3.5,-,N/A,,Haze,290,2013-01-08 09:53:00
3:53 AM,24.1,18.0,77,30.30,5.0,NNW,3.5,-,N/A,,Haze,340,2013-01-08 10:53:00
4:53 AM,24.1,18.0,77,30.31,5.0,Calm,Calm,-,N/A,,Haze,0,2013-01-08 11:53:00
5:53 AM,24.1,19.0,81,30.33,5.0,North,4.6,-,N/A,,Haze,360,2013-01-08 12:53:00
6:53 AM,24.1,18.0,77,30.34,5.0,Calm,Calm,-,N/A,,Haze,0,2013-01-08 13:53:00
7:53 AM,24.1,18.0,77,30.34,5.0,SE,5.8,-,N/A,,Haze,140,2013-01-08 14:53:00
8:53 AM,24.1,18.0,77,30.37,5.0,NNW,3.5,-,N/A,,Haze,330,2013-01-08 15:53:00
9:53 AM,25.0,19.9,81,30.39,4.0,North,5.8,-,N/A,,Haze,360,2013-01-08 16:53:00
10:53 AM,26.1,19.9,78,30.41,5.0,WNW,6.9,-,N/A,,Haze,290,2013-01-08 17:53:00
11:53 AM,27.0,21.0,78,30.40,3.0,NNW,5.8,-,N/A,,Haze,340,2013-01-08 18:53:00
12:53 PM,28.9,21.0,72,30.38,3.0,Calm,Calm,-,N/A,,Haze,0,2013-01-08 19:53:00
1:53 PM,30.0,21.9,72,30.36,3.0,Calm,Calm,-,N/A,,Haze,0,2013-01-08 20:53:00
2:53 PM,30.9,21.0,67,30.36,3.0,WSW,3.5,-,N/A,,Haze,250,2013-01-08 21:53:00
3:53 PM,30.0,23.0,75,30.39,3.0,North,6.9,-,N/A,,Haze,360,2013-01-08 22:53:00
4:53 PM,30.0,23.0,75,30.39,3.0,West,5.8,-,N/A,,Haze,270,2013-01-08 23:53:00
5:53 PM,28.9,24.1,82,30.42,3.0,North,4.6,-,N/A,,Haze,360,2013-01-09 00:53:00
6:53 PM,28.9,23.0,78,30.42,3.0,WSW,3.5,-,N/A,,Haze,240,2013-01-09 01:53:00
7:53 PM,30.0,24.1,79,30.43,6.0,SE,4.6,-,N/A,,Haze,140,2013-01-09 02:53:00
8:53 PM,30.9,24.1,76,30.44,4.0,North,5.8,-,N/A,,Haze,10,2013-01-09 03:53:00
9:53 PM,30.2,24.8,80,30.37,5.0,NNE,4.6,-,N/A,,Haze,20,2013-01-09 04:53:00
10:53 PM,28.9,25.0,85,30.45,4.0,NW,5.8,-,N/A,,Overcast,320,2013-01-09 05:53:00
11:53 PM,28.9,23.0,78,30.46,5.0,NNW,5.8,-,N/A,,Haze,330,2013-01-09 06:53:00